createdAt,value
2022-08-30T00:00:19.411Z,100038.75
2022-08-30T00:04:24.594Z,100045.09
2022-08-30T00:08:27.970Z,100047.03
2022-08-30T00:12:32.695Z,100048.91
2022-08-30T00:16:35.978Z,100049.97
2022-08-30T00:20:40.464Z,100051.00
2022-08-30T00:24:44.435Z,100057.31
2022-08-30T00:28:47.467Z,100059.19
2022-08-30T00:32:50.969Z,100049.41
2022-08-30T00:36:55.486Z,100052.16
2022-08-30T00:40:59.790Z,100053.94
2022-08-30T00:45:12.422Z,100051.41
2022-08-30T00:49:15.713Z,100051.44
2022-08-30T00:53:22.903Z,100046.16
2022-08-30T00:57:26.245Z,100043.56
2022-08-30T01:01:30.638Z,100046.34
2022-08-30T01:05:39.053Z,100041.03
2022-08-30T01:09:43.816Z,100037.59
2022-08-30T01:13:48.219Z,100034.16
2022-08-30T01:17:51.854Z,100035.16
2022-08-30T01:22:02.611Z,100040.59
2022-08-30T01:26:07.788Z,100033.53
2022-08-30T01:30:12.106Z,100030.09
2022-08-30T01:34:15.252Z,100039.16
2022-08-30T01:38:19.795Z,100041.97
2022-08-30T01:42:24.673Z,100039.47
2022-08-30T01:46:36.060Z,100038.72
2022-08-30T01:50:40.187Z,100041.47
2022-08-30T01:54:45.149Z,100045.97
2022-08-30T01:58:49.925Z,100048.69
2022-08-30T02:02:52.996Z,100044.44
2022-08-30T02:06:56.354Z,100048.97
2022-08-30T02:11:00.164Z,100044.56
2022-08-30T02:15:06.229Z,100053.56
2022-08-30T02:19:09.483Z,100049.19
2022-08-30T02:23:16.065Z,100053.81
2022-08-30T02:27:19.355Z,100048.56
2022-08-30T02:31:24.551Z,100044.34
2022-08-30T02:35:28.343Z,100035.50
2022-08-30T02:39:31.594Z,100046.19
2022-08-30T02:43:34.786Z,100044.44
2022-08-30T02:47:42.604Z,100045.41
2022-08-30T02:51:50.398Z,100047.19
2022-08-30T02:55:53.480Z,100041.91
2022-08-30T02:59:56.503Z,100044.69
2022-08-30T03:04:01.056Z,100050.06
2022-08-30T03:08:04.866Z,100048.31
2022-08-30T03:12:09.093Z,100033.16
2022-08-30T03:16:12.786Z,100037.63
2022-08-30T03:20:17.904Z,100044.81
2022-08-30T03:24:21.700Z,100045.75
2022-08-30T03:28:24.959Z,100049.34
2022-08-30T03:32:28.224Z,100052.97
2022-08-30T03:36:32.990Z,100054.84
2022-08-30T03:40:37.225Z,100057.66
2022-08-30T03:44:41.176Z,100062.13
2022-08-30T03:48:45.060Z,100063.06
2022-08-30T03:52:49.700Z,100060.47
2022-08-30T03:56:52.788Z,100068.59
2022-08-30T04:00:55.917Z,100064.22
2022-08-30T04:04:59.222Z,100065.09
2022-08-30T04:09:03.807Z,100071.41
2022-08-30T04:13:07.171Z,100075.84
2022-08-30T04:17:10.310Z,100074.09
2022-08-30T04:21:14.210Z,100077.66
2022-08-30T04:25:18.948Z,100087.53
2022-08-30T04:29:22.032Z,100083.13
2022-08-30T04:33:25.152Z,100090.31
2022-08-30T04:37:28.576Z,100092.13
2022-08-30T04:41:33.219Z,100091.28
2022-08-30T04:45:36.474Z,100103.69
2022-08-30T04:49:40.199Z,100089.50
2022-08-30T04:53:44.256Z,100094.88
2022-08-30T04:57:48.915Z,100102.91
2022-08-30T05:01:52.312Z,100095.72
2022-08-30T05:05:55.603Z,100103.81
2022-08-30T05:09:59.094Z,100117.16
2022-08-30T05:14:03.673Z,100112.66
2022-08-30T05:18:07.868Z,100121.50
2022-08-30T05:22:14.847Z,100108.06
2022-08-30T05:26:20.425Z,100121.31
2022-08-30T05:30:27.666Z,100119.53
2022-08-30T05:34:31.741Z,100125.72
2022-08-30T05:38:35.300Z,100140.75
2022-08-30T05:42:41.452Z,100147.81
2022-08-30T05:46:47.984Z,100134.38
2022-08-30T05:50:51.238Z,100138.66
2022-08-30T05:54:56.300Z,100138.53
2022-08-30T05:59:00.651Z,100136.59
2022-08-30T06:03:05.584Z,100144.50
2022-08-30T06:07:11.645Z,100149.69
2022-08-30T06:11:20.361Z,100144.13
2022-08-30T06:15:23.738Z,100153.59
2022-08-30T06:19:28.355Z,100156.03
2022-08-30T06:23:31.897Z,100158.41
2022-08-30T06:27:35.314Z,100158.97
2022-08-30T06:31:38.863Z,100161.34
2022-08-30T06:35:58.125Z,100167.25
2022-08-30T06:40:08.883Z,100162.44
2022-08-30T06:44:14.747Z,100171.88
2022-08-30T06:48:18.690Z,100175.31
2022-08-30T06:52:35.149Z,100173.25
2022-08-30T06:56:55.180Z,100181.91
2022-08-30T07:01:01.080Z,100174.34
2022-08-30T07:05:05.388Z,100178.47
2022-08-30T07:09:08.627Z,100175.53
2022-08-30T07:13:14.927Z,100176.72
2022-08-30T07:17:35.794Z,100182.53
2022-08-30T07:21:41.067Z,100174.91
2022-08-30T07:25:44.442Z,100187.75
2022-08-30T07:29:50.312Z,100184.47
2022-08-30T07:33:54.187Z,100185.75
2022-08-30T07:37:57.588Z,100185.88
2022-08-30T07:42:01.205Z,100188.91
2022-08-30T07:46:09.158Z,100196.56
2022-08-30T07:50:13.107Z,100194.97
2022-08-30T07:54:16.826Z,100192.56
2022-08-30T07:58:20.869Z,100189.00
2022-08-30T08:02:25.700Z,100191.16
2022-08-30T08:06:34.837Z,100194.22
2022-08-30T08:10:39.833Z,100192.81
2022-08-30T08:14:43.253Z,100188.94
2022-08-30T08:18:47.871Z,100185.91
2022-08-30T08:22:51.161Z,100188.81
2022-08-30T08:26:55.169Z,100183.78
2022-08-30T08:30:58.667Z,100180.56
2022-08-30T08:35:03.643Z,100179.22
2022-08-30T08:39:08.848Z,100186.25
2022-08-30T08:43:15.312Z,100174.06
2022-08-30T08:47:25.236Z,100180.03
2022-08-30T08:51:53.197Z,100178.44
2022-08-30T08:55:56.651Z,100174.03
2022-08-30T09:00:00.457Z,100167.31
2022-08-30T09:04:09.416Z,100171.22
2022-08-30T09:08:17.060Z,100165.25
2022-08-30T09:12:22.395Z,100156.59
2022-08-30T09:16:52.798Z,100152.47
2022-08-30T09:21:07.550Z,100144.44
2022-08-30T09:25:24.831Z,100155.41
2022-08-30T09:29:28.149Z,100151.81
2022-08-30T09:33:32.136Z,100140.63
2022-08-30T09:37:39.556Z,100141.22
2022-08-30T09:41:45.768Z,100143.31
2022-08-30T09:46:05.662Z,100134.53
2022-08-30T09:50:12.294Z,100127.84
2022-08-30T09:54:23.011Z,100127.16
2022-08-30T09:58:45.502Z,100114.63
2022-08-30T10:03:08.849Z,100101.66
2022-08-30T10:07:19.632Z,100106.56
2022-08-30T10:11:29.340Z,100102.53
2022-08-30T10:15:39.932Z,100096.34
2022-08-30T10:19:58.352Z,100097.34
2022-08-30T10:24:05.914Z,100086.66
2022-08-30T10:28:15.790Z,100092.59
2022-08-30T10:32:26.651Z,100078.84
2022-08-30T10:36:37.636Z,100084.03
2022-08-30T10:41:03.512Z,100072.00
2022-08-30T10:45:14.581Z,100070.34
2022-08-30T10:49:22.697Z,100068.91
2022-08-30T10:53:34.049Z,100062.56
2022-08-30T10:57:37.626Z,100052.81
2022-08-30T11:02:09.071Z,100060.72
2022-08-30T11:06:23.474Z,100052.81
2022-08-30T11:10:49.625Z,100050.88
2022-08-30T11:14:54.940Z,100036.84
2022-08-30T11:18:59.167Z,100037.31
2022-08-30T11:23:32.832Z,100043.06
2022-08-30T11:27:48.600Z,100046.44
2022-08-30T11:31:51.869Z,100050.91
2022-08-30T11:35:55.679Z,100035.81
2022-08-30T11:40:03.973Z,100033.78
2022-08-30T11:44:30.081Z,100031.91
2022-08-30T11:48:54.231Z,100019.91
2022-08-30T11:53:05.609Z,100018.53
2022-08-30T11:57:22.029Z,100022.69
2022-08-30T12:01:49.668Z,100022.78
2022-08-30T12:05:59.562Z,100017.19
2022-08-30T12:10:07.922Z,100015.19
2022-08-30T12:14:36.385Z,100013.06
2022-08-30T12:18:46.810Z,100012.97
2022-08-30T12:22:50.852Z,100003.19
2022-08-30T12:26:58.319Z,100007.44
2022-08-30T12:31:12.734Z,99996.81
2022-08-30T12:35:23.444Z,99989.06
2022-08-30T12:39:29.640Z,99984.09
2022-08-30T12:43:40.685Z,99981.38
2022-08-30T12:47:50.934Z,99980.19
2022-08-30T12:51:54.413Z,99984.78
2022-08-30T12:56:00.523Z,99972.63
2022-08-30T13:00:06.201Z,99972.16
2022-08-30T13:04:21.027Z,99970.09
2022-08-30T13:08:34.617Z,99968.19
2022-08-30T13:12:40.316Z,99970.09
2022-08-30T13:16:45.459Z,99971.81
2022-08-30T13:20:50.426Z,99975.22
2022-08-30T13:24:54.146Z,99959.63
2022-08-30T13:28:59.132Z,99954.19
2022-08-30T13:33:02.840Z,99958.03
2022-08-30T13:37:44.350Z,99952.50
2022-08-30T13:41:33.767Z,99943.84
2022-08-30T13:45:42.465Z,99939.72
2022-08-30T13:49:46.881Z,99948.78
2022-08-30T13:53:53.370Z,99950.84
2022-08-30T13:57:57.918Z,99939.34
2022-08-30T14:02:10.676Z,99935.44
2022-08-30T14:06:32.279Z,99937.19
2022-08-30T14:10:46.552Z,99930.03
2022-08-30T14:14:50.690Z,99933.84
2022-08-30T14:18:57.166Z,99938.69
2022-08-30T14:23:00.416Z,99919.28
2022-08-30T14:27:05.753Z,99920.56
2022-08-30T14:31:09.692Z,99917.34
2022-08-30T14:35:12.952Z,99903.16
2022-08-30T14:39:19.219Z,99900.75
2022-08-30T14:43:23.905Z,99910.03
2022-08-30T14:47:29.577Z,99903.09
2022-08-30T14:51:33.093Z,99901.47
2022-08-30T14:55:37.767Z,99889.31
2022-08-30T14:59:42.966Z,99896.09
2022-08-30T15:03:47.125Z,99888.47
2022-08-30T15:07:52.942Z,99885.09
2022-08-30T15:11:59.676Z,99882.69
2022-08-30T15:16:11.002Z,99886.53
2022-08-30T15:20:14.931Z,99905.75
2022-08-30T15:24:24.826Z,99902.56
2022-08-30T15:28:32.970Z,99891.25
2022-08-30T15:32:37.659Z,99885.19
2022-08-30T15:36:42.424Z,99872.81
2022-08-30T15:40:46.766Z,99874.75
2022-08-30T15:44:52.690Z,99868.69
2022-08-30T15:49:01.590Z,99866.06
2022-08-30T15:53:07.476Z,99868.19
2022-08-30T15:57:11.023Z,99861.25
2022-08-30T16:01:15.620Z,99853.16
2022-08-30T16:05:23.801Z,99850.06
2022-08-30T16:09:30.237Z,99838.50
2022-08-30T16:13:36.359Z,99841.56
2022-08-30T16:17:39.889Z,99842.53
2022-08-30T16:21:44.899Z,99840.13
2022-08-30T16:25:48.214Z,99848.31
2022-08-30T16:29:52.159Z,99841.38
2022-08-30T16:33:57.372Z,99829.00
2022-08-30T16:38:08.478Z,99837.28
2022-08-30T16:42:12.315Z,99827.75
2022-08-30T16:46:18.005Z,99822.78
2022-08-30T16:50:23.349Z,99833.69
2022-08-30T16:54:28.907Z,99831.06
2022-08-30T16:58:32.405Z,99836.78
2022-08-30T17:02:35.620Z,99845.31
2022-08-30T17:06:39.121Z,99829.50
2022-08-30T17:10:47.136Z,99839.63
2022-08-30T17:14:53.229Z,99833.53
2022-08-30T17:18:59.551Z,99838.50
2022-08-30T17:23:04.167Z,99849.56
2022-08-30T17:27:09.003Z,99848.88
2022-08-30T17:31:14.729Z,99851.13
2022-08-30T17:35:18.432Z,99855.13
2022-08-30T17:39:23.575Z,99859.47
2022-08-30T17:43:28.714Z,99870.47
2022-08-30T17:47:31.982Z,99872.56
2022-08-30T17:51:42.797Z,99874.63
2022-08-30T17:55:49.417Z,99884.03
2022-08-30T17:59:54.300Z,99891.31
2022-08-30T18:04:01.964Z,99891.66
2022-08-30T18:08:09.414Z,99902.97
2022-08-30T18:12:13.529Z,99906.75
2022-08-30T18:16:21.679Z,99921.34
2022-08-30T18:20:31.197Z,99913.50
2022-08-30T18:24:35.090Z,99913.75
2022-08-30T18:28:38.434Z,99920.25
2022-08-30T18:32:43.710Z,99925.78
2022-08-30T18:36:47.089Z,99934.22
2022-08-30T18:40:50.864Z,99934.38
2022-08-30T18:44:54.269Z,99933.91
2022-08-30T18:49:00.140Z,99940.34
2022-08-30T18:53:03.479Z,99932.56
2022-08-30T18:57:07.642Z,99935.53
2022-08-30T19:01:13.898Z,99932.28
2022-08-30T19:05:22.209Z,99944.22
2022-08-30T19:09:27.237Z,99934.69
2022-08-30T19:13:31.616Z,99935.81
2022-08-30T19:17:35.123Z,99941.47
2022-08-30T19:21:40.305Z,99938.16
2022-08-30T19:25:44.574Z,99942.09
2022-08-30T19:29:53.666Z,99939.03
2022-08-30T19:33:57.446Z,99955.50
2022-08-30T19:38:02.163Z,99948.63
2022-08-30T19:42:05.790Z,99949.81
2022-08-30T19:46:09.621Z,99949.16
2022-08-30T19:50:15.719Z,99949.44
2022-08-30T19:54:20.514Z,99960.53
2022-08-30T19:58:24.320Z,99958.19
2022-08-30T20:02:28.270Z,99963.97
2022-08-30T20:06:32.522Z,99968.75
2022-08-30T20:10:37.925Z,99967.31
2022-08-30T20:14:42.667Z,99970.44
2022-08-30T20:18:48.070Z,99969.91
2022-08-30T20:22:54.335Z,99969.38
2022-08-30T20:26:59.734Z,99959.84
2022-08-30T20:31:06.941Z,99958.41
2022-08-30T20:35:11.112Z,99951.56
2022-08-30T20:39:17.638Z,99956.28
2022-08-30T20:43:24.966Z,99949.47
2022-08-30T20:47:28.635Z,99945.38
2022-08-30T20:51:31.934Z,99948.38
2022-08-30T20:55:42.568Z,99952.34
2022-08-30T20:59:47.257Z,99953.53
2022-08-30T21:03:52.180Z,99961.88
2022-08-30T21:07:55.587Z,99954.19
2022-08-30T21:11:59.288Z,99954.31
2022-08-30T21:16:04.529Z,99956.19
2022-08-30T21:20:09.845Z,99964.41
2022-08-30T21:24:13.088Z,99961.84
2022-08-30T21:28:17.645Z,99959.34
2022-08-30T21:32:22.659Z,99960.47
2022-08-30T21:36:45.250Z,99971.28
2022-08-30T21:40:48.995Z,99964.44
2022-08-30T21:44:52.271Z,99963.81
2022-08-30T21:48:59.221Z,99955.06
2022-08-30T21:53:02.625Z,99953.59
2022-08-30T21:57:07.133Z,99952.03
2022-08-30T22:01:11.890Z,99961.16
2022-08-30T22:05:16.709Z,99964.16
2022-08-30T22:09:23.477Z,99963.47
2022-08-30T22:13:26.926Z,99956.53
2022-08-30T22:17:31.691Z,99950.44
2022-08-30T22:21:41.891Z,99952.41
2022-08-30T22:25:45.352Z,99954.41
2022-08-30T22:29:48.859Z,99935.88
2022-08-30T22:33:53.393Z,99940.63
2022-08-30T22:37:58.399Z,99936.31
2022-08-30T22:42:01.862Z,99927.63
2022-08-30T22:46:07.060Z,99928.69
2022-08-30T22:50:10.980Z,99932.34
2022-08-30T22:54:15.755Z,99934.31
2022-08-30T22:58:19.566Z,99929.09
2022-08-30T23:02:23.176Z,99929.31
2022-08-30T23:06:26.763Z,99933.09
2022-08-30T23:10:31.469Z,99930.63
2022-08-30T23:14:34.934Z,99925.53
2022-08-30T23:18:40.627Z,99923.00
2022-08-30T23:22:44.252Z,99938.28
2022-08-30T23:27:06.308Z,99920.66
2022-08-30T23:31:28.999Z,99924.44
2022-08-30T23:35:49.844Z,99930.84
2022-08-30T23:40:10.990Z,99932.78
2022-08-30T23:44:32.922Z,99944.56
2022-08-30T23:48:53.945Z,99938.56
2022-08-30T23:53:14.660Z,99939.63
2022-08-30T23:57:35.462Z,99938.88
